Harbert, Michigan
Current Conditions -  °F | °C
As of 9:55 AM on Thursday 23 Oct 2014 (Local Time) from KMGC Reporting Station
Clear Clear  
Wind Chill: 39°   Ceiling: Unl
Heat Index: 43°   Visibility: 7mi
Dew Point: 41°   Wind: 7mph
Humidity: 93%   Direction: 190°S
Pressure: 30.25"   Gusts: NA
Location:  41.87°N, 86.63°W
Report Text: KMGC 231355Z AUTO 19006KT 7SM CLR 06/05 A3025 RMK AO2
Loading
Personal Weather Stations






























Interactive Weather Map
Tropical Storm Tracking
New forecast layout! Learn more

10-Day Weather Forecast

Advertisements
Track Severe Weather on mobile